Time;durP1;ratioP1;P1;durP2;ratioP2;P2;SDS_P1;SDS_P2;PMS_P1;PMS_P2;Temp;Humidity;BMP_temperature;BMP_pressure;BME280_temperature;BME280_humidity;BME280_pressure;Samples;Min_cycle;Max_cycle;Signal;HPM_P1;HPM_P2
2022/04/24 00:00:52;;;;;;;8.35;6.25;;;;;;;;;;789835;75;26693;-78
2022/04/24 00:01:56;;;;;;;7.47;6.70;;;;;;;;;;789938;75;26667;-76
2022/04/24 00:02:59;;;;;;;9.53;6.50;;;;;;;;;;789865;75;26704;-76
2022/04/24 00:04:02;;;;;;;9.10;5.97;;;;;;;;;;789838;75;26305;-75
2022/04/24 00:05:05;;;;;;;6.97;5.95;;;;;;;;;;789780;75;26312;-76
2022/04/24 00:07:47;;;;;;;6.90;6.22;;;;;;;;;;792970;73;26218;-77
2022/04/24 00:08:51;;;;;;;7.50;5.90;;;;;;;;;;793135;75;26221;-77
2022/04/24 00:09:55;;;;;;;6.42;5.83;;;;;;;;;;793081;73;26222;-77
2022/04/24 00:10:57;;;;;;;7.00;5.80;;;;;;;;;;793045;75;26220;-75
2022/04/24 00:12:01;;;;;;;7.40;5.37;;;;;;;;;;793119;75;26291;-76
2022/04/24 00:13:03;;;;;;;7.17;5.62;;;;;;;;;;793142;75;26229;-75
2022/04/24 00:14:09;;;;;;;9.30;6.25;;;;;;;;;;793172;75;26729;-75
2022/04/24 00:18:40;;;;;;;7.17;6.08;;;;;;;;;;790818;73;26287;-77
2022/04/24 00:19:44;;;;;;;7.55;6.80;;;;;;;;;;791963;74;26229;-75
2022/04/24 00:20:47;;;;;;;7.72;6.62;;;;;;;;;;791775;75;26324;-76
2022/04/24 00:21:50;;;;;;;7.40;6.00;;;;;;;;;;791440;75;26236;-77
2022/04/24 00:24:49;;;;;;;10.25;7.10;;;;;;;;;;761297;75;26672;-76
2022/04/24 00:27:26;;;;;;;8.80;6.42;;;;;;;;;;760859;77;26217;-76
2022/04/24 00:28:29;;;;;;;8.60;7.62;;;;;;;;;;762024;78;26263;-76
2022/04/24 00:29:32;;;;;;;8.45;7.58;;;;;;;;;;762026;78;26349;-76
2022/04/24 00:30:35;;;;;;;12.23;7.80;;;;;;;;;;762078;78;26250;-77
2022/04/24 00:31:37;;;;;;;9.48;7.53;;;;;;;;;;763053;78;26261;-76
2022/04/24 00:32:40;;;;;;;8.03;6.78;;;;;;;;;;763487;78;26255;-75
2022/04/24 00:33:43;;;;;;;8.90;6.50;;;;;;;;;;763682;78;26317;-76
2022/04/24 00:41:54;;;;;;;6.60;5.97;;;;;;;;;;776810;75;26634;-75
2022/04/24 00:42:57;;;;;;;7.47;5.40;;;;;;;;;;786490;75;26247;-77
2022/04/24 00:43:59;;;;;;;10.05;6.92;;;;;;;;;;784513;75;26381;-76
2022/04/24 00:48:33;;;;;;;12.70;10.30;;;;;;;;;;756840;77;26633;-75
2022/04/24 00:49:38;;;;;;;10.28;7.53;;;;;;;;;;755066;78;26324;-77
2022/04/24 00:50:42;;;;;;;7.20;6.42;;;;;;;;;;751409;78;26321;-75
2022/04/24 00:51:45;;;;;;;6.92;6.30;;;;;;;;;;750370;79;26318;-77
2022/04/24 00:52:48;;;;;;;6.20;5.60;;;;;;;;;;750043;79;26313;-77
2022/04/24 00:53:51;;;;;;;6.83;5.70;;;;;;;;;;750023;79;26331;-76
2022/04/24 00:58:36;;;;;;;6.58;5.25;;;;;;;;;;739535;78;26237;-78
2022/04/24 00:59:39;;;;;;;5.33;4.78;;;;;;;;;;738173;80;26281;-75
2022/04/24 01:00:41;;;;;;;6.70;5.00;;;;;;;;;;750847;79;26329;-74
2022/04/24 01:01:45;;;;;;;7.10;5.53;;;;;;;;;;737722;80;26282;-77
2022/04/24 01:02:48;;;;;;;6.03;5.42;;;;;;;;;;754222;78;26364;-77
2022/04/24 01:03:51;;;;;;;7.65;6.00;;;;;;;;;;737658;80;26725;-76
2022/04/24 01:07:51;;;;;;;6.83;5.30;;;;;;;;;;772566;76;26243;-78
2022/04/24 01:08:54;;;;;;;6.40;5.58;;;;;;;;;;755731;78;26305;-77
2022/04/24 01:09:58;;;;;;;5.45;4.67;;;;;;;;;;768830;77;26331;-76
2022/04/24 01:11:00;;;;;;;8.43;5.35;;;;;;;;;;767370;77;26745;-76
2022/04/24 01:12:04;;;;;;;7.15;5.55;;;;;;;;;;767337;77;26259;-80
2022/04/24 01:13:07;;;;;;;8.40;5.90;;;;;;;;;;767452;77;26248;-75
2022/04/24 01:14:11;;;;;;;9.90;5.45;;;;;;;;;;767382;77;26248;-77
2022/04/24 01:17:00;;;;;;;6.75;6.12;;;;;;;;;;766817;76;26533;-75
2022/04/24 01:18:02;;;;;;;7.50;6.60;;;;;;;;;;778258;76;26695;-76
2022/04/24 01:19:05;;;;;;;8.58;6.25;;;;;;;;;;776885;76;26711;-77
2022/04/24 01:20:09;;;;;;;6.08;5.47;;;;;;;;;;765944;77;26819;-78
2022/04/24 01:21:12;;;;;;;6.30;5.40;;;;;;;;;;765960;77;26247;-76
2022/04/24 01:29:07;;;;;;;5.97;5.37;;;;;;;;;;790978;73;26222;-78
2022/04/24 01:30:10;;;;;;;7.20;5.87;;;;;;;;;;778056;75;26699;-76
2022/04/24 01:31:13;;;;;;;7.83;5.15;;;;;;;;;;780768;76;26705;-77
2022/04/24 01:32:16;;;;;;;6.08;5.00;;;;;;;;;;780798;76;26733;-76
2022/04/24 01:33:18;;;;;;;6.03;4.95;;;;;;;;;;780865;76;26250;-76
2022/04/24 01:34:22;;;;;;;5.72;4.85;;;;;;;;;;780869;76;24681;-76
2022/04/24 01:38:57;;;;;;;6.20;5.42;;;;;;;;;;793694;73;26227;-77
2022/04/24 01:40:00;;;;;;;8.35;5.40;;;;;;;;;;791135;75;26225;-77
2022/04/24 01:41:03;;;;;;;7.53;5.40;;;;;;;;;;791249;75;26248;-77
2022/04/24 01:42:06;;;;;;;6.10;5.50;;;;;;;;;;791152;75;26238;-76
2022/04/24 01:43:09;;;;;;;7.85;5.53;;;;;;;;;;791272;75;26235;-77
2022/04/24 01:44:12;;;;;;;7.17;5.50;;;;;;;;;;791267;75;26230;-75
2022/04/24 01:48:54;;;;;;;5.85;5.25;;;;;;;;;;789964;73;26707;-77
2022/04/24 01:49:57;;;;;;;7.80;5.75;;;;;;;;;;790122;75;26261;-75
2022/04/24 01:51:04;;;;;;;7.10;6.10;;;;;;;;;;790149;75;26311;-76
2022/04/24 01:52:07;;;;;;;10.68;6.03;;;;;;;;;;789466;75;26261;-75
2022/04/24 01:53:11;;;;;;;6.20;5.60;;;;;;;;;;790208;75;26311;-76
2022/04/24 01:54:13;;;;;;;10.98;6.60;;;;;;;;;;790545;75;26798;-77
2022/04/24 01:56:53;;;;;;;9.70;5.85;;;;;;;;;;786734;71;26292;-76
2022/04/24 01:57:56;;;;;;;6.60;5.55;;;;;;;;;;778711;76;26299;-76
2022/04/24 01:58:59;;;;;;;7.00;6.10;;;;;;;;;;778792;76;26246;-77
2022/04/24 02:00:02;;;;;;;7.45;6.08;;;;;;;;;;778783;76;26250;-76
2022/04/24 02:01:05;;;;;;;7.28;6.47;;;;;;;;;;778807;76;26252;-78
2022/04/24 02:02:08;;;;;;;7.92;6.17;;;;;;;;;;778849;76;26228;-76
2022/04/24 02:03:11;;;;;;;6.55;6.00;;;;;;;;;;778814;76;26341;-76
2022/04/24 02:04:14;;;;;;;10.72;6.75;;;;;;;;;;778884;76;26311;-77
2022/04/24 02:08:46;;;;;;;6.83;5.95;;;;;;;;;;763747;75;26314;-76
2022/04/24 02:18:15;;;;;;;6.00;5.40;;;;;;;;;;791634;74;26223;-76
2022/04/24 02:19:18;;;;;;;5.75;5.15;;;;;;;;;;794076;74;26301;-75
2022/04/24 02:20:21;;;;;;;7.45;5.78;;;;;;;;;;794139;74;26242;-77
2022/04/24 02:21:25;;;;;;;5.97;5.10;;;;;;;;;;794348;74;26225;-75
2022/04/24 02:22:32;;;;;;;6.92;5.25;;;;;;;;;;794077;74;26252;-74
2022/04/24 02:23:35;;;;;;;6.03;5.42;;;;;;;;;;795273;74;26288;-76
2022/04/24 02:28:19;;;;;;;9.20;5.05;;;;;;;;;;777032;76;26222;-77
2022/04/24 02:29:22;;;;;;;6.20;5.67;;;;;;;;;;776939;76;26250;-75
2022/04/24 02:30:26;;;;;;;6.12;5.53;;;;;;;;;;776909;76;26722;-75
2022/04/24 02:31:29;;;;;;;6.67;5.40;;;;;;;;;;776341;76;26253;-76
2022/04/24 02:32:32;;;;;;;6.85;5.40;;;;;;;;;;775942;76;26314;-76
2022/04/24 02:33:35;;;;;;;5.60;5.08;;;;;;;;;;775826;76;26252;-75
2022/04/24 02:38:17;;;;;;;6.47;5.45;;;;;;;;;;771242;75;26298;-77
2022/04/24 02:39:20;;;;;;;6.12;5.50;;;;;;;;;;774913;76;26314;-76
2022/04/24 02:40:22;;;;;;;7.03;5.35;;;;;;;;;;774676;76;26368;-78
2022/04/24 02:41:28;;;;;;;7.20;5.30;;;;;;;;;;774833;76;26252;-76
2022/04/24 02:42:31;;;;;;;6.92;5.37;;;;;;;;;;775092;76;26268;-75
2022/04/24 02:43:34;;;;;;;6.75;5.80;;;;;;;;;;774751;76;26334;-76
2022/04/24 02:48:18;;;;;;;6.47;5.80;;;;;;;;;;795335;73;26206;-77
2022/04/24 02:49:21;;;;;;;9.55;5.67;;;;;;;;;;795948;74;26214;-76
2022/04/24 02:50:24;;;;;;;8.03;6.15;;;;;;;;;;795494;74;26276;-75
2022/04/24 02:51:27;;;;;;;7.62;6.05;;;;;;;;;;795533;74;26678;-77
2022/04/24 02:52:29;;;;;;;8.28;5.90;;;;;;;;;;795533;74;26664;-76
2022/04/24 02:53:32;;;;;;;7.58;5.72;;;;;;;;;;795590;74;26272;-76
2022/04/24 02:54:35;;;;;;;8.08;5.33;;;;;;;;;;796096;74;26221;-76
2022/04/24 03:08:01;;;;;;;5.78;5.15;;;;;;;;;;739278;78;26297;-77
2022/04/24 03:09:05;;;;;;;7.37;5.45;;;;;;;;;;740889;80;26275;-78
2022/04/24 03:10:09;;;;;;;10.32;5.65;;;;;;;;;;740913;80;26279;-77
2022/04/24 03:11:12;;;;;;;6.55;5.75;;;;;;;;;;741289;78;26279;-75
2022/04/24 03:12:14;;;;;;;5.80;5.20;;;;;;;;;;740720;80;26282;-76
2022/04/24 03:13:18;;;;;;;6.33;5.20;;;;;;;;;;740853;80;26343;-77
2022/04/24 03:18:14;;;;;;;9.23;5.75;;;;;;;;;;806243;73;26737;-79
2022/04/24 03:22:47;;;;;;;10.88;6.53;;;;;;;;;;774491;75;26329;-76
2022/04/24 03:23:50;;;;;;;8.35;6.60;;;;;;;;;;771166;77;26641;-76
2022/04/24 03:27:08;;;;;;;8.60;6.83;;;;;;;;;;784743;73;26679;-76
2022/04/24 03:28:10;;;;;;;8.15;6.55;;;;;;;;;;788446;75;26230;-76
2022/04/24 03:29:14;;;;;;;8.08;6.55;;;;;;;;;;787424;75;26223;-75
2022/04/24 03:30:16;;;;;;;8.95;6.25;;;;;;;;;;787473;75;26229;-77
2022/04/24 03:31:19;;;;;;;8.75;6.70;;;;;;;;;;787405;75;26231;-76
2022/04/24 03:32:22;;;;;;;7.25;5.75;;;;;;;;;;787412;75;26229;-76
2022/04/24 03:33:25;;;;;;;7.08;6.40;;;;;;;;;;787431;75;26219;-75
2022/04/24 03:36:43;;;;;;;8.43;6.60;;;;;;;;;;790545;75;26152;-77
2022/04/24 03:37:46;;;;;;;9.98;6.50;;;;;;;;;;763517;77;26261;-76
2022/04/24 03:38:49;;;;;;;8.23;6.55;;;;;;;;;;762772;78;26303;-76
2022/04/24 03:39:52;;;;;;;11.57;7.28;;;;;;;;;;762672;78;26323;-77
2022/04/24 03:40:55;;;;;;;9.48;5.65;;;;;;;;;;762676;78;26259;-77
2022/04/24 03:41:58;;;;;;;7.03;6.25;;;;;;;;;;762737;78;26350;-75
2022/04/24 03:43:03;;;;;;;10.75;7.08;;;;;;;;;;762669;78;26714;-77
2022/04/24 03:56:00;;;;;;;6.12;4.97;;;;;;;;;;755568;78;26160;-77
2022/04/24 03:57:04;;;;;;;6.60;5.75;;;;;;;;;;760211;77;26674;-77
2022/04/24 03:58:06;;;;;;;6.80;6.20;;;;;;;;;;774525;76;26319;-77
2022/04/24 03:59:09;;;;;;;6.03;5.37;;;;;;;;;;785365;75;26230;-77
2022/04/24 04:00:12;;;;;;;5.55;5.05;;;;;;;;;;788989;75;26238;-76
2022/04/24 04:01:15;;;;;;;8.68;6.55;;;;;;;;;;788957;75;26233;-78
2022/04/24 04:02:18;;;;;;;6.20;5.60;;;;;;;;;;770293;77;26253;-77
2022/04/24 04:03:21;;;;;;;7.10;5.20;;;;;;;;;;776002;75;26277;-77
2022/04/24 04:07:41;;;;;;;6.78;5.30;;;;;;;;;;762251;76;26306;-76
2022/04/24 04:08:44;;;;;;;6.65;5.95;;;;;;;;;;776576;76;26245;-77
2022/04/24 04:09:48;;;;;;;7.37;6.37;;;;;;;;;;776859;76;26326;-76
2022/04/24 04:10:50;;;;;;;9.43;6.35;;;;;;;;;;776661;76;26355;-77
2022/04/24 04:11:53;;;;;;;6.75;6.05;;;;;;;;;;776615;76;26306;-75
2022/04/24 04:12:56;;;;;;;7.45;6.58;;;;;;;;;;776524;76;26260;-76
2022/04/24 04:16:14;;;;;;;7.05;6.35;;;;;;;;;;776559;76;26189;-78
2022/04/24 04:17:17;;;;;;;8.98;6.05;;;;;;;;;;760656;78;26295;-76
2022/04/24 04:21:51;;;;;;;7.65;6.78;;;;;;;;;;786306;75;26719;-75
2022/04/24 04:22:54;;;;;;;7.65;6.10;;;;;;;;;;786179;75;26235;-76
2022/04/24 04:27:38;;;;;;;7.67;6.40;;;;;;;;;;769043;75;26207;-76
2022/04/24 04:28:41;;;;;;;6.83;5.97;;;;;;;;;;771378;76;26703;-76
2022/04/24 04:29:44;;;;;;;7.37;6.12;;;;;;;;;;772023;76;26303;-77
2022/04/24 04:30:47;;;;;;;6.50;6.00;;;;;;;;;;770441;76;26708;-77
2022/04/24 04:31:50;;;;;;;7.40;6.20;;;;;;;;;;771539;76;26308;-78
2022/04/24 04:36:20;;;;;;;6.97;6.28;;;;;;;;;;785422;73;26258;-77
2022/04/24 04:37:23;;;;;;;7.42;6.55;;;;;;;;;;807213;73;26270;-76
2022/04/24 04:38:26;;;;;;;7.50;6.80;;;;;;;;;;807446;73;26216;-78
2022/04/24 04:39:28;;;;;;;7.95;7.15;;;;;;;;;;807468;73;26217;-78
2022/04/24 04:40:31;;;;;;;7.95;6.35;;;;;;;;;;807478;73;26654;-79
2022/04/24 04:41:34;;;;;;;7.17;6.40;;;;;;;;;;807519;73;26278;-76
2022/04/24 04:42:37;;;;;;;9.23;6.22;;;;;;;;;;807497;73;26221;-76
2022/04/24 04:49:58;;;;;;;10.25;6.83;;;;;;;;;;762537;76;26360;-78
2022/04/24 04:51:03;;;;;;;8.18;6.90;;;;;;;;;;772017;76;26324;-75
2022/04/24 04:52:05;;;;;;;9.85;6.75;;;;;;;;;;771034;77;26315;-79
2022/04/24 04:53:08;;;;;;;8.10;7.08;;;;;;;;;;770987;77;26319;-78
2022/04/24 04:56:18;;;;;;;9.70;7.70;;;;;;;;;;767608;73;26255;-77
2022/04/24 04:57:22;;;;;;;8.90;8.03;;;;;;;;;;769103;77;26778;-79
2022/04/24 04:58:25;;;;;;;12.50;10.80;;;;;;;;;;768742;77;26736;-78
2022/04/24 04:59:28;;;;;;;13.15;10.48;;;;;;;;;;768815;77;26256;-77
2022/04/24 05:00:31;;;;;;;11.33;10.28;;;;;;;;;;769378;77;26257;-77
2022/04/24 05:01:34;;;;;;;10.85;9.73;;;;;;;;;;768939;77;26240;-77
2022/04/24 05:02:40;;;;;;;11.75;9.10;;;;;;;;;;768822;77;26242;-77
2022/04/24 05:07:37;;;;;;;10.80;8.40;;;;;;;;;;768814;76;26298;-76
2022/04/24 05:08:40;;;;;;;13.75;9.23;;;;;;;;;;769659;77;26301;-77
2022/04/24 05:09:43;;;;;;;14.68;11.83;;;;;;;;;;769677;77;26337;-76
2022/04/24 05:10:46;;;;;;;16.60;12.68;;;;;;;;;;768980;77;26298;-77
2022/04/24 05:11:49;;;;;;;14.80;11.00;;;;;;;;;;769427;77;26306;-78
2022/04/24 05:12:51;;;;;;;12.37;11.07;;;;;;;;;;769050;77;27084;-77
2022/04/24 05:17:36;;;;;;;12.23;8.60;;;;;;;;;;773165;75;26452;-78
2022/04/24 05:18:39;;;;;;;8.83;7.93;;;;;;;;;;787671;75;26464;-75
2022/04/24 05:19:42;;;;;;;10.73;8.73;;;;;;;;;;775869;76;26436;-76
2022/04/24 05:26:06;;;;;;;13.80;9.20;;;;;;;;;;801827;72;26492;-77
2022/04/24 05:27:09;;;;;;;11.20;9.33;;;;;;;;;;803148;73;26499;-77
2022/04/24 05:28:13;;;;;;;10.03;9.00;;;;;;;;;;802411;74;26470;-76
2022/04/24 05:29:17;;;;;;;10.80;8.73;;;;;;;;;;802420;74;26448;-77
2022/04/24 05:30:20;;;;;;;10.60;9.60;;;;;;;;;;798914;74;26934;-76
2022/04/24 05:31:22;;;;;;;10.40;9.40;;;;;;;;;;795607;74;26510;-76
2022/04/24 05:32:26;;;;;;;10.47;9.40;;;;;;;;;;795515;74;26450;-77
2022/04/24 05:33:29;;;;;;;10.60;9.50;;;;;;;;;;795659;74;26721;-75
2022/04/24 05:38:31;;;;;;;10.80;9.80;;;;;;;;;;746598;78;26631;-76
2022/04/24 05:39:34;;;;;;;11.50;10.03;;;;;;;;;;773914;75;26404;-78
2022/04/24 05:40:37;;;;;;;10.80;9.80;;;;;;;;;;785942;75;26768;-77
2022/04/24 05:41:40;;;;;;;10.87;9.77;;;;;;;;;;786316;75;26466;-77
2022/04/24 05:42:49;;;;;;;10.50;9.40;;;;;;;;;;785782;75;26533;-77
2022/04/24 05:45:56;;;;;;;10.90;9.80;;;;;;;;;;786146;75;26691;-77
2022/04/24 05:46:59;;;;;;;12.90;10.57;;;;;;;;;;799656;74;26791;-77
2022/04/24 05:48:02;;;;;;;11.30;10.20;;;;;;;;;;800044;74;26629;-77
2022/04/24 05:49:05;;;;;;;12.10;10.90;;;;;;;;;;799847;74;26475;-78
2022/04/24 05:50:09;;;;;;;13.70;10.20;;;;;;;;;;798987;74;26553;-75
2022/04/24 05:51:12;;;;;;;13.17;11.10;;;;;;;;;;800852;74;26461;-76
2022/04/24 05:52:15;;;;;;;12.23;11.03;;;;;;;;;;801294;74;26467;-78
2022/04/24 05:53:18;;;;;;;12.67;11.37;;;;;;;;;;801252;74;26472;-77
2022/04/24 05:56:39;;;;;;;12.20;10.03;;;;;;;;;;800701;74;26372;-77
2022/04/24 05:57:43;;;;;;;12.60;10.80;;;;;;;;;;805098;73;26407;-78
2022/04/24 05:58:46;;;;;;;11.93;10.73;;;;;;;;;;787753;75;26399;-75
2022/04/24 05:59:49;;;;;;;11.83;10.53;;;;;;;;;;787406;75;26451;-76
2022/04/24 06:00:53;;;;;;;11.33;10.20;;;;;;;;;;787512;75;26456;-77
2022/04/24 06:01:56;;;;;;;12.00;10.80;;;;;;;;;;787295;75;26848;-77
2022/04/24 06:03:00;;;;;;;11.90;10.70;;;;;;;;;;787362;75;26950;-77
2022/04/24 06:05:48;;;;;;;10.70;9.60;;;;;;;;;;775110;75;26431;-77
2022/04/24 06:06:51;;;;;;;11.50;10.30;;;;;;;;;;775402;76;26560;-78
2022/04/24 06:13:06;;;;;;;12.10;10.20;;;;;;;;;;795967;73;26878;-77
2022/04/24 06:17:11;;;;;;;10.33;8.10;;;;;;;;;;801174;73;26417;-75
2022/04/24 06:18:14;;;;;;;10.10;9.20;;;;;;;;;;800576;74;26455;-76
2022/04/24 06:19:17;;;;;;;11.13;8.90;;;;;;;;;;804086;74;26236;-78
2022/04/24 06:20:20;;;;;;;9.50;8.30;;;;;;;;;;804400;74;26410;-76
2022/04/24 06:21:23;;;;;;;9.07;8.20;;;;;;;;;;804441;74;26526;-78
2022/04/24 06:22:26;;;;;;;8.37;7.60;;;;;;;;;;804436;74;26527;-76
2022/04/24 06:27:10;;;;;;;6.00;5.50;;;;;;;;;;774060;76;26631;-77
2022/04/24 06:31:43;;;;;;;11.23;7.77;;;;;;;;;;803565;73;26419;-77
2022/04/24 06:32:46;;;;;;;8.83;6.70;;;;;;;;;;802932;74;26456;-78
2022/04/24 06:35:46;;;;;;;9.40;5.50;;;;;;;;;;774740;75;26415;-78
2022/04/24 06:36:52;;;;;;;5.20;4.80;;;;;;;;;;794662;74;26532;-78
2022/04/24 06:37:55;;;;;;;5.30;4.40;;;;;;;;;;794747;74;26470;-76
2022/04/24 06:39:00;;;;;;;7.20;5.10;;;;;;;;;;794973;74;26670;-77
2022/04/24 06:40:02;;;;;;;4.90;4.40;;;;;;;;;;794904;74;26914;-79
2022/04/24 06:41:05;;;;;;;5.43;4.57;;;;;;;;;;794827;74;26528;-77
2022/04/24 06:42:08;;;;;;;5.70;5.20;;;;;;;;;;794849;74;26284;-76
2022/04/24 06:45:27;;;;;;;6.77;5.40;;;;;;;;;;795398;74;26387;-77
2022/04/24 06:46:30;;;;;;;7.93;5.70;;;;;;;;;;794352;74;26458;-79
2022/04/24 06:47:33;;;;;;;7.13;6.13;;;;;;;;;;794206;74;26479;-78
2022/04/24 06:48:36;;;;;;;13.50;11.40;;;;;;;;;;794112;74;26523;-75
2022/04/24 06:49:39;;;;;;;17.17;15.37;;;;;;;;;;794320;74;26526;-77
2022/04/24 06:50:46;;;;;;;9.80;8.80;;;;;;;;;;794480;74;26472;-78
2022/04/24 06:51:48;;;;;;;8.37;6.53;;;;;;;;;;795182;74;26472;-75
2022/04/24 07:01:56;;;;;;;6.83;5.90;;;;;;;;;;775779;75;26349;-77
2022/04/24 07:02:59;;;;;;;7.63;5.87;;;;;;;;;;777703;76;27012;-76
2022/04/24 07:07:31;;;;;;;5.30;4.80;;;;;;;;;;755804;75;27024;-77
2022/04/24 07:08:35;;;;;;;4.93;4.53;;;;;;;;;;790738;75;26947;-77
2022/04/24 07:09:38;;;;;;;5.23;4.73;;;;;;;;;;793395;75;27019;-77
2022/04/24 07:10:41;;;;;;;4.90;4.50;;;;;;;;;;793454;75;26604;-76
2022/04/24 07:11:44;;;;;;;4.97;4.43;;;;;;;;;;793833;75;26591;-76
2022/04/24 07:12:48;;;;;;;4.63;4.23;;;;;;;;;;793965;75;26526;-77
2022/04/24 07:17:07;;;;;;;4.20;3.80;;;;;;;;;;800616;73;26910;-77
2022/04/24 07:18:10;;;;;;;5.83;4.40;;;;;;;;;;802606;74;26535;-78
2022/04/24 07:19:14;;;;;;;5.87;3.90;;;;;;;;;;802587;74;26956;-76
2022/04/24 07:20:17;;;;;;;4.27;3.87;;;;;;;;;;802763;74;26608;-78
2022/04/24 07:21:20;;;;;;;4.50;4.10;;;;;;;;;;803891;74;26493;-76
2022/04/24 07:22:25;;;;;;;4.70;4.30;;;;;;;;;;802845;72;26578;-77
2022/04/24 07:25:31;;;;;;;5.63;4.33;;;;;;;;;;803833;74;26475;-76
2022/04/24 07:26:34;;;;;;;4.90;4.03;;;;;;;;;;771537;76;26661;-76
2022/04/24 07:27:37;;;;;;;4.43;4.10;;;;;;;;;;777354;76;26705;-77
2022/04/24 07:28:40;;;;;;;6.37;3.97;;;;;;;;;;778981;76;27225;-78
2022/04/24 07:29:43;;;;;;;4.97;3.77;;;;;;;;;;779387;76;26699;-75
2022/04/24 07:30:46;;;;;;;4.47;4.07;;;;;;;;;;779949;76;26743;-76
2022/04/24 07:31:50;;;;;;;4.47;4.07;;;;;;;;;;778956;76;26732;-78
2022/04/24 07:32:54;;;;;;;5.00;4.60;;;;;;;;;;779750;76;26933;-77
2022/04/24 07:35:43;;;;;;;6.03;4.17;;;;;;;;;;770030;75;27419;-77
2022/04/24 07:36:46;;;;;;;4.63;4.23;;;;;;;;;;767229;77;27004;-76
2022/04/24 07:37:49;;;;;;;4.33;3.93;;;;;;;;;;767223;77;26946;-77
2022/04/24 07:38:51;;;;;;;6.53;4.27;;;;;;;;;;767349;77;26922;-77
2022/04/24 07:39:54;;;;;;;9.40;4.97;;;;;;;;;;767226;77;27427;-78
2022/04/24 07:40:58;;;;;;;5.23;4.00;;;;;;;;;;767203;77;27467;-76
2022/04/24 07:42:01;;;;;;;6.00;4.57;;;;;;;;;;767282;77;26934;-76
2022/04/24 07:50:06;;;;;;;6.70;6.00;;;;;;;;;;766097;75;26884;-78
2022/04/24 07:51:11;;;;;;;6.23;5.33;;;;;;;;;;783982;74;26962;-78
2022/04/24 07:52:13;;;;;;;5.67;5.17;;;;;;;;;;787422;75;27011;-78
2022/04/24 07:55:32;;;;;;;5.60;5.10;;;;;;;;;;787653;75;26836;-77
2022/04/24 07:56:34;;;;;;;10.27;6.30;;;;;;;;;;773357;76;27024;-78
2022/04/24 07:57:37;;;;;;;6.60;5.93;;;;;;;;;;773347;76;26865;-76
2022/04/24 07:58:40;;;;;;;5.97;5.30;;;;;;;;;;773359;76;27367;-75
2022/04/24 07:59:43;;;;;;;6.30;5.70;;;;;;;;;;773322;76;26858;-77
2022/04/24 08:00:47;;;;;;;6.83;5.10;;;;;;;;;;773333;76;27323;-76
2022/04/24 08:01:51;;;;;;;8.27;5.10;;;;;;;;;;773334;76;26863;-77
2022/04/24 08:05:09;;;;;;;5.40;4.80;;;;;;;;;;774531;76;26851;-77
2022/04/24 08:06:12;;;;;;;7.00;4.50;;;;;;;;;;751484;79;27432;-77
2022/04/24 08:07:15;;;;;;;6.20;4.97;;;;;;;;;;751442;79;27019;-78
2022/04/24 08:08:19;;;;;;;5.70;5.20;;;;;;;;;;751433;79;26998;-77
2022/04/24 08:09:22;;;;;;;5.77;5.30;;;;;;;;;;751443;79;27018;-76
2022/04/24 08:10:28;;;;;;;7.13;5.30;;;;;;;;;;751477;79;27030;-77
2022/04/24 08:11:30;;;;;;;6.27;5.67;;;;;;;;;;751468;78;27422;-77
2022/04/24 08:12:34;;;;;;;5.93;5.20;;;;;;;;;;751504;79;27014;-76
2022/04/24 08:15:31;;;;;;;5.70;5.20;;;;;;;;;;778880;75;26978;-78
2022/04/24 08:16:37;;;;;;;5.90;5.30;;;;;;;;;;795044;74;26844;-77
2022/04/24 08:17:40;;;;;;;4.90;4.40;;;;;;;;;;797152;74;26938;-77
2022/04/24 08:18:43;;;;;;;5.50;4.70;;;;;;;;;;797180;74;26854;-77
2022/04/24 08:19:46;;;;;;;6.00;4.60;;;;;;;;;;797123;74;26863;-77
2022/04/24 08:20:49;;;;;;;4.43;4.13;;;;;;;;;;797144;74;26843;-77
2022/04/24 08:21:51;;;;;;;5.93;4.50;;;;;;;;;;797209;74;26950;-78
2022/04/24 08:25:10;;;;;;;5.53;4.70;;;;;;;;;;798460;74;26763;-77
2022/04/24 08:26:13;;;;;;;4.87;4.13;;;;;;;;;;739034;80;27469;-76
2022/04/24 08:27:15;;;;;;;5.30;4.80;;;;;;;;;;740758;80;27505;-76
2022/04/24 08:28:21;;;;;;;4.77;4.30;;;;;;;;;;740723;79;27046;-76
2022/04/24 08:29:24;;;;;;;4.23;3.83;;;;;;;;;;725487;82;27086;-76
2022/04/24 08:30:27;;;;;;;4.50;4.00;;;;;;;;;;725500;82;27001;-77
2022/04/24 08:38:26;;;;;;;5.47;4.33;;;;;;;;;;765053;77;26966;-78
2022/04/24 08:39:32;;;;;;;4.83;4.33;;;;;;;;;;759293;77;26898;-76
2022/04/24 08:40:35;;;;;;;5.50;4.80;;;;;;;;;;759743;78;27412;-77
2022/04/24 08:41:40;;;;;;;4.30;4.00;;;;;;;;;;759722;78;26932;-77
2022/04/24 08:44:56;;;;;;;4.90;4.50;;;;;;;;;;797406;73;26941;-77
2022/04/24 08:45:59;;;;;;;5.00;4.60;;;;;;;;;;802309;74;26888;-77
2022/04/24 08:47:03;;;;;;;5.40;4.80;;;;;;;;;;804212;74;26950;-77
2022/04/24 08:48:06;;;;;;;4.20;3.83;;;;;;;;;;804253;74;26895;-77
2022/04/24 08:49:10;;;;;;;7.10;4.70;;;;;;;;;;802161;73;26899;-77
2022/04/24 08:50:14;;;;;;;6.50;4.23;;;;;;;;;;808699;73;26909;-78
2022/04/24 08:51:16;;;;;;;4.53;4.20;;;;;;;;;;808831;73;26974;-77
2022/04/24 08:52:20;;;;;;;4.47;4.07;;;;;;;;;;807906;73;26964;-77
2022/04/24 08:56:51;;;;;;;4.03;3.73;;;;;;;;;;790418;74;26911;-77
2022/04/24 08:57:53;;;;;;;4.50;4.10;;;;;;;;;;792793;75;26980;-79
2022/04/24 08:58:56;;;;;;;5.53;4.20;;;;;;;;;;793686;74;26922;-77
2022/04/24 09:00:00;;;;;;;4.87;4.10;;;;;;;;;;789999;74;26936;-77
2022/04/24 09:01:04;;;;;;;4.37;4.07;;;;;;;;;;789274;74;27008;-76
2022/04/24 09:02:09;;;;;;;5.60;4.60;;;;;;;;;;791317;75;26921;-76
2022/04/24 09:10:15;;;;;;;5.53;4.57;;;;;;;;;;803493;73;26883;-76
2022/04/24 09:11:19;;;;;;;5.13;4.63;;;;;;;;;;775265;76;26995;-78
2022/04/24 09:14:24;;;;;;;4.87;4.47;;;;;;;;;;776053;76;26860;-78
2022/04/24 09:15:28;;;;;;;4.83;4.33;;;;;;;;;;789159;75;26975;-77
2022/04/24 09:16:35;;;;;;;5.90;5.30;;;;;;;;;;789510;75;27477;-78
2022/04/24 09:17:39;;;;;;;5.30;4.90;;;;;;;;;;789804;75;26921;-77
2022/04/24 09:18:42;;;;;;;5.87;5.27;;;;;;;;;;789747;75;26932;-75
2022/04/24 09:25:00;;;;;;;4.17;3.80;;;;;;;;;;790911;75;26866;-77
2022/04/24 09:26:03;;;;;;;3.93;3.60;;;;;;;;;;804476;74;26944;-76
2022/04/24 09:27:06;;;;;;;4.70;4.30;;;;;;;;;;804395;74;27379;-77
2022/04/24 09:28:09;;;;;;;4.43;3.93;;;;;;;;;;804449;74;27388;-79
2022/04/24 09:29:12;;;;;;;4.77;3.77;;;;;;;;;;784915;75;27006;-77
2022/04/24 09:30:16;;;;;;;4.97;4.03;;;;;;;;;;784916;75;27356;-78
2022/04/24 09:31:18;;;;;;;5.50;5.00;;;;;;;;;;784929;75;27015;-78
2022/04/24 09:35:53;;;;;;;4.33;4.00;;;;;;;;;;782355;75;26869;-77
2022/04/24 09:37:00;;;;;;;3.83;3.43;;;;;;;;;;786003;74;26974;-77
2022/04/24 09:38:09;;;;;;;3.40;3.03;;;;;;;;;;789891;75;26990;-77
2022/04/24 09:39:13;;;;;;;3.77;3.43;;;;;;;;;;789903;75;27005;-78
2022/04/24 09:40:16;;;;;;;4.53;3.00;;;;;;;;;;789869;75;27428;-76
2022/04/24 09:41:20;;;;;;;5.13;4.63;;;;;;;;;;790144;75;26986;-78
2022/04/24 09:44:26;;;;;;;2.90;2.77;;;;;;;;;;790811;75;26885;-77
2022/04/24 09:45:29;;;;;;;5.37;3.33;;;;;;;;;;781908;76;27486;-77
2022/04/24 09:46:34;;;;;;;3.70;3.40;;;;;;;;;;750846;78;26971;-77
2022/04/24 09:47:37;;;;;;;4.93;3.30;;;;;;;;;;755254;78;27028;-76
2022/04/24 09:48:40;;;;;;;3.60;3.17;;;;;;;;;;768329;77;27014;-79
2022/04/24 09:49:46;;;;;;;5.10;3.33;;;;;;;;;;781880;76;27380;-78
2022/04/24 09:50:49;;;;;;;3.97;3.60;;;;;;;;;;781997;76;27420;-78
2022/04/24 09:51:52;;;;;;;3.70;3.00;;;;;;;;;;781948;76;27400;-77
2022/04/24 09:56:27;;;;;;;3.07;2.87;;;;;;;;;;793253;74;27412;-78
2022/04/24 10:01:59;;;;;;;3.27;2.97;;;;;;;;;;783633;75;26971;-77
2022/04/24 10:04:56;;;;;;;4.90;3.10;;;;;;;;;;783783;75;26960;-78
2022/04/24 10:06:01;;;;;;;3.47;3.20;;;;;;;;;;757509;78;27016;-76
2022/04/24 10:09:20;;;;;;;4.63;3.17;;;;;;;;;;757846;78;26913;-75
2022/04/24 10:10:23;;;;;;;3.70;3.40;;;;;;;;;;774410;76;26928;-76
2022/04/24 10:11:26;;;;;;;3.30;3.00;;;;;;;;;;771777;77;26979;-76
2022/04/24 10:14:44;;;;;;;4.70;3.90;;;;;;;;;;772519;77;27317;-77
2022/04/24 10:15:48;;;;;;;4.00;3.10;;;;;;;;;;774348;77;26917;-77
2022/04/24 10:16:59;;;;;;;3.37;3.00;;;;;;;;;;774104;77;26971;-78
2022/04/24 10:18:21;;;;;;;3.10;2.90;;;;;;;;;;773022;77;27409;-78
2022/04/24 10:19:37;;;;;;;4.23;3.27;;;;;;;;;;773576;77;27359;-76
2022/04/24 10:20:48;;;;;;;4.07;3.20;;;;;;;;;;773417;76;26987;-79
2022/04/24 10:22:01;;;;;;;3.60;3.30;;;;;;;;;;772707;77;27398;-76
2022/04/24 10:23:03;;;;;;;3.20;2.90;;;;;;;;;;772674;77;27514;-76
2022/04/24 10:24:12;;;;;;;3.50;3.20;;;;;;;;;;772702;77;27421;-77
2022/04/24 10:25:16;;;;;;;3.13;2.90;;;;;;;;;;772937;77;26971;-76
2022/04/24 10:26:19;;;;;;;4.83;4.33;;;;;;;;;;772726;76;27387;-78
2022/04/24 10:27:22;;;;;;;3.33;3.13;;;;;;;;;;772654;77;27367;-78
2022/04/24 10:28:26;;;;;;;4.30;3.07;;;;;;;;;;772639;77;26925;-76
2022/04/24 10:29:29;;;;;;;4.40;3.87;;;;;;;;;;771320;76;27351;-78
2022/04/24 10:30:34;;;;;;;3.00;2.80;;;;;;;;;;772776;77;27394;-76
2022/04/24 10:31:44;;;;;;;4.17;3.43;;;;;;;;;;772690;77;26985;-78
2022/04/24 10:35:04;;;;;;;3.50;3.20;;;;;;;;;;772995;77;26884;-78
2022/04/24 10:36:08;;;;;;;4.53;3.13;;;;;;;;;;785735;75;26924;-77
2022/04/24 10:37:12;;;;;;;3.20;2.90;;;;;;;;;;785390;75;26968;-77
2022/04/24 10:38:16;;;;;;;4.80;3.30;;;;;;;;;;785880;75;26911;-79
2022/04/24 10:39:19;;;;;;;4.00;3.30;;;;;;;;;;785485;75;26918;-78